Time;durP1;ratioP1;P1;durP2;ratioP2;P2;SDS_P1;SDS_P2;PMS_P1;PMS_P2;Temp;Humidity;BMP_temperature;BMP_pressure;BME280_temperature;BME280_humidity;BME280_pressure;Samples;Min_cycle;Max_cycle;Signal;HPM_P1;HPM_P2
2022/06/03 00:01:12;;;;;;;6.20;4.60;;;15.50;99.90;;;;;;4990709;28;21266;-78
2022/06/03 00:03:59;;;;;;;5.63;4.73;;;15.50;99.90;;;;;;4967492;28;20533;-79
2022/06/03 00:06:56;;;;;;;4.50;4.10;;;15.50;99.90;;;;;;4990171;28;20461;-77
2022/06/03 00:09:36;;;;;;;4.17;3.87;;;15.50;99.90;;;;;;4969878;28;20431;-77
2022/06/03 00:12:20;;;;;;;7.30;4.57;;;15.50;99.90;;;;;;4990046;28;20958;-76
2022/06/03 00:15:10;;;;;;;4.80;4.33;;;15.40;99.90;;;;;;4991278;28;20480;-78
2022/06/03 00:17:51;;;;;;;7.27;5.13;;;15.50;99.90;;;;;;4994685;28;20430;-78
2022/06/03 00:20:36;;;;;;;7.00;4.57;;;15.40;99.90;;;;;;4994769;28;20434;-78
2022/06/03 00:23:20;;;;;;;4.70;4.03;;;15.40;99.90;;;;;;4996767;28;20862;-78
2022/06/03 00:26:04;;;;;;;7.80;4.43;;;15.30;99.90;;;;;;4995756;28;20843;-79
2022/06/03 00:29:01;;;;;;;4.13;3.70;;;15.30;99.90;;;;;;4993673;28;20415;-79
2022/06/03 00:31:42;;;;;;;4.73;4.20;;;15.20;99.90;;;;;;5008832;28;20932;-79
2022/06/03 00:34:23;;;;;;;4.70;4.00;;;15.20;99.90;;;;;;4990206;28;20421;-80
2022/06/03 00:37:07;;;;;;;3.87;3.40;;;15.20;99.90;;;;;;4991291;28;20427;-79
2022/06/03 00:39:55;;;;;;;4.40;4.00;;;15.20;99.90;;;;;;4992224;28;20449;-78
2022/06/03 00:42:50;;;;;;;4.20;3.90;;;15.20;99.90;;;;;;4990163;28;20455;-78
2022/06/03 00:45:28;;;;;;;7.40;4.30;;;15.20;99.90;;;;;;4982643;28;20473;-78
2022/06/03 00:48:34;;;;;;;5.40;4.70;;;15.20;99.90;;;;;;4993788;28;20413;-78
2022/06/03 00:51:21;;;;;;;8.70;4.53;;;15.20;99.90;;;;;;5008074;28;21275;-79
2022/06/03 00:54:11;;;;;;;5.23;4.73;;;15.20;99.90;;;;;;4991177;28;20911;-78
2022/06/03 00:56:54;;;;;;;4.33;3.93;;;15.10;99.90;;;;;;4991555;28;20475;-78
2022/06/03 00:59:58;;;;;;;4.23;3.80;;;15.10;99.90;;;;;;4989990;28;20421;-78
2022/06/03 01:03:01;;;;;;;4.33;3.90;;;15.10;99.90;;;;;;4990093;28;20442;-77
2022/06/03 01:05:45;;;;;;;5.87;4.70;;;15.00;99.90;;;;;;4989477;28;20464;-77
2022/06/03 01:08:26;;;;;;;9.90;4.43;;;15.00;99.90;;;;;;4990601;28;20931;-78
2022/06/03 01:11:04;;;;;;;5.03;4.53;;;15.00;99.90;;;;;;4988337;28;20445;-77
2022/06/03 01:13:54;;;;;;;8.93;4.60;;;14.90;99.90;;;;;;5007068;28;20448;-78
2022/06/03 01:16:25;;;;;;;7.03;4.50;;;14.90;99.90;;;;;;4994948;28;20421;-77
2022/06/03 01:18:59;;;;;;;6.10;4.20;;;14.90;99.90;;;;;;4993025;28;21231;-77
2022/06/03 01:22:01;;;;;;;4.30;4.00;;;14.90;99.90;;;;;;4994194;28;20799;-78
2022/06/03 01:24:42;;;;;;;7.53;4.73;;;14.80;99.90;;;;;;5009391;28;20467;-78
2022/06/03 01:27:45;;;;;;;4.67;4.33;;;14.50;99.90;;;;;;4992759;28;20418;-78
2022/06/03 01:30:24;;;;;;;5.93;4.70;;;14.60;99.90;;;;;;4971188;28;20873;-78
2022/06/03 01:32:55;;;;;;;4.47;4.07;;;14.60;99.90;;;;;;4994124;28;20440;-78
2022/06/03 01:35:51;;;;;;;4.30;3.90;;;14.60;99.90;;;;;;4994145;28;20428;-78
2022/06/03 01:38:58;;;;;;;9.00;4.40;;;14.60;99.90;;;;;;4994158;28;20427;-77
2022/06/03 01:41:32;;;;;;;4.73;4.33;;;14.60;99.90;;;;;;4980120;28;20483;-77
2022/06/03 01:44:03;;;;;;;7.60;4.67;;;14.60;99.90;;;;;;4990776;28;20428;-77
2022/06/03 01:46:31;;;;;;;4.53;4.23;;;14.60;99.90;;;;;;4990709;28;20429;-77
2022/06/03 01:48:57;;;;;;;4.60;4.20;;;14.60;99.90;;;;;;4990747;28;20804;-77
2022/06/03 01:51:53;;;;;;;4.50;4.10;;;14.60;99.90;;;;;;4992502;28;20434;-78
2022/06/03 01:54:52;;;;;;;5.23;4.73;;;14.60;99.90;;;;;;4993397;28;20190;-78
2022/06/03 01:57:36;;;;;;;4.80;4.40;;;14.70;99.90;;;;;;4993470;28;20428;-78
2022/06/03 02:00:23;;;;;;;6.20;4.90;;;14.70;99.90;;;;;;4993063;28;20409;-78
2022/06/03 02:03:15;;;;;;;6.43;4.87;;;14.70;99.90;;;;;;4990570;28;20474;-79
2022/06/03 02:06:03;;;;;;;4.60;4.30;;;14.70;99.90;;;;;;4990358;28;21080;-75
2022/06/03 02:08:37;;;;;;;5.30;4.40;;;14.70;99.90;;;;;;4991579;28;20416;-75
2022/06/03 02:11:15;;;;;;;7.60;5.00;;;14.70;99.90;;;;;;4989970;28;20444;-74
2022/06/03 02:14:05;;;;;;;6.53;5.83;;;14.60;99.90;;;;;;4991401;28;20519;-74
2022/06/03 02:16:36;;;;;;;5.80;5.17;;;14.60;99.90;;;;;;4991409;28;20434;-75
2022/06/03 02:19:20;;;;;;;14.60;5.40;;;14.60;99.90;;;;;;4991504;28;20512;-75
2022/06/03 02:22:18;;;;;;;6.40;4.33;;;14.60;99.90;;;;;;4992081;28;20871;-75
2022/06/03 02:25:03;;;;;;;6.30;5.00;;;14.60;99.90;;;;;;4966763;28;20484;-75
2022/06/03 02:28:21;;;;;;;6.83;4.53;;;14.70;99.90;;;;;;4992512;28;20444;-75
2022/06/03 02:30:59;;;;;;;11.00;5.23;;;14.50;99.90;;;;;;4970213;28;20442;-75
2022/06/03 02:33:52;;;;;;;5.67;5.07;;;14.50;99.90;;;;;;4992652;28;20422;-75
2022/06/03 02:36:42;;;;;;;10.57;5.40;;;14.50;99.90;;;;;;5027333;28;20424;-75
2022/06/03 02:39:39;;;;;;;8.13;5.90;;;14.50;99.90;;;;;;5016862;28;20517;-76
2022/06/03 02:42:26;;;;;;;10.30;5.90;;;14.50;99.90;;;;;;5017760;28;20497;-74
2022/06/03 02:45:15;;;;;;;8.33;6.10;;;14.40;99.90;;;;;;4993336;28;20483;-74
2022/06/03 02:48:06;;;;;;;7.00;6.23;;;14.40;99.90;;;;;;4991751;28;21303;-72
2022/06/03 02:50:31;;;;;;;8.63;6.60;;;14.40;99.90;;;;;;4991817;28;20429;-73
2022/06/03 02:52:57;;;;;;;8.40;6.20;;;14.40;99.90;;;;;;4991322;28;20441;-73
2022/06/03 02:55:41;;;;;;;7.40;6.13;;;14.30;99.90;;;;;;4990868;28;20415;-77
2022/06/03 02:58:19;;;;;;;7.00;6.30;;;14.30;99.90;;;;;;4989252;28;20182;-76
2022/06/03 03:01:21;;;;;;;7.97;6.97;;;14.30;99.90;;;;;;4988903;28;20946;-75
2022/06/03 03:03:56;;;;;;;11.30;6.70;;;14.30;99.90;;;;;;4990589;28;20476;-75
2022/06/03 03:06:41;;;;;;;6.77;6.17;;;14.30;99.90;;;;;;4990269;28;20923;-76
2022/06/03 03:09:24;;;;;;;14.67;6.90;;;14.30;99.90;;;;;;4990607;28;20413;-76
2022/06/03 03:11:53;;;;;;;7.30;6.60;;;14.30;99.90;;;;;;4990502;28;20510;-76
2022/06/03 03:14:32;;;;;;;7.40;6.20;;;14.20;99.90;;;;;;4988889;28;20556;-75
2022/06/03 03:17:35;;;;;;;9.57;7.10;;;14.20;99.90;;;;;;4990261;28;20460;-76
2022/06/03 03:20:19;;;;;;;10.23;5.87;;;14.10;99.90;;;;;;4990206;28;20777;-76
2022/06/03 03:22:57;;;;;;;7.87;7.07;;;14.10;99.90;;;;;;4988468;28;20441;-76
2022/06/03 03:25:29;;;;;;;11.07;7.30;;;14.10;99.90;;;;;;4988622;28;20472;-76
2022/06/03 03:28:13;;;;;;;8.87;7.97;;;14.10;99.90;;;;;;4988914;28;20422;-76
2022/06/03 03:31:29;;;;;;;12.50;7.20;;;14.00;99.90;;;;;;4990505;28;20409;-76
2022/06/03 03:34:01;;;;;;;7.50;6.80;;;14.00;99.90;;;;;;4929724;29;20428;-75
2022/06/03 03:36:51;;;;;;;7.70;6.90;;;14.00;99.90;;;;;;4985806;28;20556;-76
2022/06/03 03:39:43;;;;;;;9.50;7.60;;;13.90;99.90;;;;;;4988411;28;20419;-76
2022/06/03 03:42:31;;;;;;;7.13;6.53;;;13.70;99.90;;;;;;4988303;28;20852;-76
2022/06/03 03:45:02;;;;;;;9.00;6.73;;;13.70;99.90;;;;;;4989572;28;20461;-76
2022/06/03 03:48:06;;;;;;;8.17;7.40;;;13.80;99.90;;;;;;4989535;28;20467;-76
2022/06/03 03:50:46;;;;;;;8.40;7.30;;;13.90;99.90;;;;;;4956220;28;20421;-75
2022/06/03 03:53:29;;;;;;;6.63;6.03;;;14.00;99.90;;;;;;4988224;28;20421;-75
2022/06/03 03:55:58;;;;;;;12.03;6.70;;;14.10;99.90;;;;;;4989418;28;20417;-76
2022/06/03 03:58:50;;;;;;;7.10;5.70;;;14.10;99.90;;;;;;4989343;28;20514;-75
2022/06/03 04:01:28;;;;;;;7.70;6.77;;;14.10;99.90;;;;;;4989305;28;20430;-75
2022/06/03 04:04:03;;;;;;;8.40;6.50;;;14.20;99.90;;;;;;4989234;28;20921;-75
2022/06/03 04:07:06;;;;;;;6.30;5.80;;;14.20;99.90;;;;;;4987745;28;20468;-76
2022/06/03 04:09:52;;;;;;;8.03;6.20;;;14.20;99.90;;;;;;4989216;28;20460;-75
2022/06/03 04:12:36;;;;;;;7.40;5.00;;;14.30;99.90;;;;;;4987647;28;20441;-75
2022/06/03 04:15:23;;;;;;;9.80;6.00;;;14.30;99.90;;;;;;4989236;28;20425;-75
2022/06/03 04:18:07;;;;;;;6.70;6.10;;;14.40;99.90;;;;;;4989207;28;20431;-75
2022/06/03 04:21:01;;;;;;;8.73;6.23;;;14.40;99.90;;;;;;4989319;28;20447;-76
2022/06/03 04:23:48;;;;;;;5.90;5.27;;;14.50;99.90;;;;;;4989166;28;20425;-75
2022/06/03 04:26:36;;;;;;;7.63;5.80;;;14.60;99.90;;;;;;4989124;28;21317;-75
2022/06/03 04:29:50;;;;;;;6.90;5.63;;;14.50;99.90;;;;;;5004383;28;21005;-76
2022/06/03 04:32:33;;;;;;;8.70;5.90;;;14.50;99.90;;;;;;4986316;28;20456;-77
2022/06/03 04:35:45;;;;;;;7.67;5.50;;;14.60;99.90;;;;;;4989107;28;20428;-77
2022/06/03 04:38:35;;;;;;;6.47;5.30;;;14.70;99.90;;;;;;4989377;28;20908;-76
2022/06/03 04:41:18;;;;;;;8.27;5.50;;;14.70;99.90;;;;;;4989065;28;20921;-75
2022/06/03 04:44:21;;;;;;;8.10;6.40;;;14.70;99.90;;;;;;4988121;28;20839;-76
2022/06/03 04:47:20;;;;;;;9.33;6.30;;;14.80;99.90;;;;;;4987221;28;20443;-77
2022/06/03 04:50:27;;;;;;;9.23;6.60;;;14.80;99.90;;;;;;4992198;28;20514;-76
2022/06/03 04:53:11;;;;;;;13.93;7.00;;;14.90;99.90;;;;;;4992206;28;20500;-76
2022/06/03 04:55:43;;;;;;;6.90;6.30;;;15.00;99.90;;;;;;4990508;28;20426;-76
2022/06/03 04:58:36;;;;;;;6.30;5.70;;;15.20;99.90;;;;;;4992200;28;20419;-76
2022/06/03 05:01:29;;;;;;;6.00;5.50;;;15.30;99.90;;;;;;4991982;28;20488;-76
2022/06/03 05:04:19;;;;;;;8.17;6.40;;;15.50;99.90;;;;;;4991936;28;20438;-76
2022/06/03 05:07:13;;;;;;;6.03;5.20;;;15.60;99.90;;;;;;4991710;28;20490;-76
2022/06/03 05:10:06;;;;;;;7.83;6.00;;;15.70;99.90;;;;;;4991912;28;20756;-77
2022/06/03 05:12:46;;;;;;;6.73;5.97;;;15.80;99.90;;;;;;4991445;28;20531;-76
2022/06/03 05:15:18;;;;;;;8.60;6.50;;;15.90;99.90;;;;;;4989728;28;20957;-76
2022/06/03 05:18:02;;;;;;;6.13;5.63;;;16.00;99.90;;;;;;4989752;28;20429;-76
2022/06/03 05:21:09;;;;;;;9.83;6.37;;;16.10;99.90;;;;;;4992384;28;20411;-76
2022/06/03 05:24:05;;;;;;;6.87;6.27;;;16.20;99.90;;;;;;4991054;28;20448;-76
2022/06/03 05:27:02;;;;;;;6.60;5.97;;;16.30;99.90;;;;;;4990202;28;21297;-76
2022/06/03 05:30:05;;;;;;;7.87;6.23;;;16.50;99.90;;;;;;4989575;28;20434;-76
2022/06/03 05:32:42;;;;;;;5.80;5.30;;;16.60;99.90;;;;;;4991061;28;20473;-76
2022/06/03 05:35:36;;;;;;;8.03;6.20;;;16.80;99.90;;;;;;4991094;28;20603;-77
2022/06/03 05:38:43;;;;;;;17.37;6.00;;;16.90;99.90;;;;;;4991124;28;20982;-76
2022/06/03 05:45:00;;;;;;;6.63;6.00;;;17.30;99.90;;;;;;4991075;28;20406;-77
2022/06/03 05:47:47;;;;;;;10.63;6.70;;;17.40;99.90;;;;;;5005823;28;20867;-77
2022/06/03 05:50:41;;;;;;;8.17;6.43;;;17.60;99.90;;;;;;4991064;28;20407;-76
2022/06/03 05:53:49;;;;;;;8.97;6.10;;;17.70;99.90;;;;;;4990849;28;21044;-76
2022/06/03 05:56:40;;;;;;;6.67;6.07;;;17.80;99.90;;;;;;4990877;28;21288;-76
2022/06/03 05:59:23;;;;;;;6.70;5.83;;;18.00;99.90;;;;;;5005407;28;20420;-77
2022/06/03 06:02:09;;;;;;;7.03;5.37;;;18.10;99.90;;;;;;4990994;28;20451;-75
2022/06/03 06:04:35;;;;;;;6.97;6.27;;;18.30;99.90;;;;;;4990838;28;20405;-77
2022/06/03 06:07:17;;;;;;;8.67;5.90;;;18.40;99.90;;;;;;4990823;28;20436;-76
2022/06/03 06:09:52;;;;;;;6.50;6.00;;;18.40;99.90;;;;;;4990838;28;20159;-77
2022/06/03 06:12:36;;;;;;;6.63;5.83;;;18.60;99.90;;;;;;5005646;28;20470;-78
2022/06/03 06:15:43;;;;;;;6.70;6.03;;;18.70;99.90;;;;;;4989476;28;20940;-76
2022/06/03 06:18:17;;;;;;;6.83;6.10;;;18.80;99.90;;;;;;4989407;28;20591;-77
2022/06/03 06:21:18;;;;;;;6.80;5.13;;;19.00;99.90;;;;;;4989385;28;20476;-77
2022/06/03 06:24:12;;;;;;;5.83;5.20;;;19.20;99.90;;;;;;4959643;28;20420;-77
2022/06/03 06:26:57;;;;;;;10.80;5.27;;;19.20;99.90;;;;;;4987171;28;20860;-77
2022/06/03 06:29:44;;;;;;;6.13;5.53;;;19.40;99.90;;;;;;4989641;28;20420;-77
2022/06/03 06:32:22;;;;;;;9.77;5.70;;;19.50;99.90;;;;;;4990922;28;20443;-76
2022/06/03 06:35:00;;;;;;;6.80;6.10;;;19.60;99.90;;;;;;4989464;28;20416;-77
2022/06/03 06:37:50;;;;;;;8.80;5.80;;;19.70;99.90;;;;;;4991051;28;20408;-76
2022/06/03 06:40:50;;;;;;;10.00;6.03;;;19.80;99.90;;;;;;4989144;28;20476;-76
2022/06/03 06:43:30;;;;;;;6.13;5.60;;;20.00;99.90;;;;;;4989942;28;20490;-76
2022/06/03 06:46:19;;;;;;;6.03;5.50;;;20.10;99.90;;;;;;4989652;28;20503;-76
2022/06/03 06:49:09;;;;;;;6.27;5.73;;;20.20;99.90;;;;;;4989772;28;20509;-77
2022/06/03 06:51:56;;;;;;;8.50;5.57;;;20.20;99.90;;;;;;4989515;28;20440;-76
2022/06/03 06:54:54;;;;;;;8.03;5.63;;;20.20;99.90;;;;;;4989342;28;20892;-76
2022/06/03 06:57:32;;;;;;;5.93;5.43;;;20.30;99.90;;;;;;4987662;28;20774;-77
2022/06/03 07:00:13;;;;;;;6.60;5.70;;;20.40;99.90;;;;;;5003931;28;20933;-77
2022/06/03 07:02:49;;;;;;;6.03;5.47;;;20.40;99.90;;;;;;4987518;28;20820;-77
2022/06/03 07:05:20;;;;;;;7.60;5.00;;;20.40;99.90;;;;;;4989111;28;20471;-76
2022/06/03 07:07:51;;;;;;;7.17;5.10;;;20.40;99.90;;;;;;4987400;28;20425;-76
2022/06/03 07:10:35;;;;;;;6.10;5.50;;;20.40;99.90;;;;;;4988339;28;20397;-76
2022/06/03 07:13:12;;;;;;;6.00;5.40;;;20.50;99.90;;;;;;4988846;28;20468;-76
2022/06/03 07:19:47;;;;;;;7.90;5.60;;;20.50;99.90;;;;;;4987597;28;20453;-76
2022/06/03 07:22:04;;;;;;;6.43;5.67;;;20.60;99.90;;;;;;4989258;28;20822;-76
2022/06/03 07:24:44;;;;;;;5.13;4.63;;;20.60;99.90;;;;;;4989062;28;20456;-76
2022/06/03 07:27:29;;;;;;;5.10;4.57;;;20.50;99.90;;;;;;4988777;28;20401;-76
2022/06/03 07:30:11;;;;;;;8.63;4.83;;;20.60;99.90;;;;;;4988617;28;20499;-76
2022/06/03 07:32:51;;;;;;;6.77;5.27;;;20.80;99.90;;;;;;4988899;28;20447;-76
2022/06/03 07:35:42;;;;;;;6.07;4.20;;;20.90;99.90;;;;;;5003735;28;20826;-76
2022/06/03 07:38:36;;;;;;;5.33;4.83;;;21.00;99.90;;;;;;4988718;28;20436;-76
2022/06/03 07:41:11;;;;;;;5.80;4.37;;;21.00;99.90;;;;;;4989679;28;20451;-76
2022/06/03 07:43:52;;;;;;;4.97;4.57;;;21.10;99.90;;;;;;4990691;28;20452;-76
2022/06/03 07:46:20;;;;;;;5.13;4.57;;;21.10;99.90;;;;;;4990192;28;20453;-76
2022/06/03 07:48:46;;;;;;;8.63;4.97;;;21.20;99.90;;;;;;4990085;28;20428;-76
2022/06/03 07:51:15;;;;;;;4.70;4.40;;;21.30;99.90;;;;;;4990400;28;20448;-77
2022/06/03 07:54:06;;;;;;;5.97;5.00;;;21.40;99.90;;;;;;5011994;28;20417;-76
2022/06/03 07:56:35;;;;;;;4.63;4.20;;;21.50;99.90;;;;;;5014067;28;20516;-77
2022/06/03 07:59:06;;;;;;;7.97;4.57;;;21.60;99.90;;;;;;5014575;28;20441;-76
2022/06/03 08:01:42;;;;;;;5.00;4.53;;;21.60;99.90;;;;;;5013938;28;20429;-76
2022/06/03 08:04:12;;;;;;;4.20;3.90;;;21.70;99.90;;;;;;4989109;28;21241;-76
2022/06/03 08:12:24;;;;;;;6.13;4.67;;;22.00;99.90;;;;;;4987547;28;20444;-76
2022/06/03 08:14:50;;;;;;;4.47;4.07;;;22.30;99.90;;;;;;4988227;28;20448;-77
2022/06/03 08:17:19;;;;;;;5.40;4.90;;;22.40;99.90;;;;;;4987076;28;20430;-76
2022/06/03 08:19:45;;;;;;;7.90;4.50;;;22.50;99.90;;;;;;4988586;28;20182;-76
2022/06/03 08:22:14;;;;;;;8.43;4.87;;;22.60;99.90;;;;;;4991467;28;21201;-76
2022/06/03 08:24:47;;;;;;;5.80;5.30;;;22.70;99.90;;;;;;4992693;28;20450;-76
2022/06/03 08:27:20;;;;;;;13.10;4.80;;;22.60;99.90;;;;;;4991134;28;20521;-76
2022/06/03 08:30:02;;;;;;;12.83;5.17;;;22.70;99.90;;;;;;5007540;28;21373;-76
2022/06/03 08:32:33;;;;;;;7.97;4.43;;;22.90;99.90;;;;;;4992366;28;20461;-77
2022/06/03 08:35:04;;;;;;;4.93;4.47;;;23.10;99.90;;;;;;4992609;28;20792;-76
2022/06/03 08:37:36;;;;;;;10.87;5.07;;;23.40;99.90;;;;;;4991370;28;20898;-76
2022/06/03 08:40:30;;;;;;;8.80;4.93;;;23.60;99.90;;;;;;4993016;28;20420;-76
2022/06/03 08:43:23;;;;;;;10.33;5.00;;;23.80;99.90;;;;;;4962276;28;21017;-76
2022/06/03 08:46:07;;;;;;;4.50;4.10;;;24.00;99.90;;;;;;4992826;28;20959;-76
2022/06/03 08:48:39;;;;;;;11.50;4.90;;;24.30;99.90;;;;;;4992814;28;20779;-76
2022/06/03 08:51:12;;;;;;;8.70;4.00;;;24.50;99.90;;;;;;4992677;28;20489;-76
2022/06/03 08:53:50;;;;;;;8.50;4.33;;;24.80;99.90;;;;;;4991332;28;20427;-76
2022/06/03 08:56:21;;;;;;;7.50;4.40;;;25.00;99.90;;;;;;4990875;28;20457;-76
2022/06/03 08:58:56;;;;;;;10.97;4.60;;;25.30;99.90;;;;;;4991228;28;20923;-76
2022/06/03 09:01:40;;;;;;;6.00;3.63;;;25.50;99.90;;;;;;4992317;28;20568;-76
2022/06/03 09:04:11;;;;;;;4.60;3.97;;;25.70;99.90;;;;;;4990459;28;20459;-76
2022/06/03 09:07:10;;;;;;;10.80;4.40;;;25.90;99.90;;;;;;4992007;28;20849;-76
2022/06/03 09:09:48;;;;;;;4.93;4.43;;;26.20;99.90;;;;;;4991937;28;20396;-76
2022/06/03 09:12:29;;;;;;;8.60;3.53;;;26.40;99.90;;;;;;4991795;28;20447;-77
2022/06/03 09:14:59;;;;;;;9.03;4.50;;;26.60;99.90;;;;;;4991543;28;20547;-77
2022/06/03 09:17:53;;;;;;;4.30;3.63;;;26.80;99.90;;;;;;4991566;28;20421;-77
2022/06/03 09:20:31;;;;;;;7.23;3.73;;;26.90;99.90;;;;;;4989895;28;20490;-76
2022/06/03 09:23:05;;;;;;;4.30;3.77;;;27.20;99.80;;;;;;4991290;28;20968;-76
2022/06/03 09:25:32;;;;;;;5.63;4.10;;;27.40;99.30;;;;;;4990933;28;20968;-76
2022/06/03 09:28:02;;;;;;;4.97;4.40;;;27.50;99.00;;;;;;4989542;28;20977;-77
2022/06/03 09:30:38;;;;;;;12.13;4.90;;;27.80;98.20;;;;;;4991090;28;20796;-77
2022/06/03 09:33:07;;;;;;;5.03;4.47;;;28.10;98.50;;;;;;4988951;28;20447;-76
2022/06/03 09:35:37;;;;;;;7.20;4.07;;;28.20;98.50;;;;;;4990838;28;20531;-77
2022/06/03 09:38:06;;;;;;;3.73;3.43;;;28.40;97.80;;;;;;4991343;28;20420;-77
2022/06/03 09:40:36;;;;;;;4.63;3.90;;;28.60;97.80;;;;;;4989845;28;20707;-77
2022/06/03 09:43:36;;;;;;;4.40;4.00;;;28.80;97.90;;;;;;4991020;28;20503;-77
2022/06/03 09:46:05;;;;;;;4.63;4.00;;;29.00;97.20;;;;;;4989130;28;20901;-77
2022/06/03 09:48:36;;;;;;;5.73;4.47;;;29.00;96.60;;;;;;4989418;28;20523;-77
2022/06/03 09:51:20;;;;;;;4.73;4.33;;;29.20;95.80;;;;;;5005350;28;20436;-76
2022/06/03 09:53:47;;;;;;;5.73;4.00;;;29.40;95.70;;;;;;4990335;28;21230;-77
2022/06/03 09:56:26;;;;;;;7.10;4.60;;;29.50;94.40;;;;;;4990458;28;20456;-77
2022/06/03 09:59:04;;;;;;;4.40;4.00;;;29.70;94.90;;;;;;5005096;28;20467;-77
2022/06/03 10:01:30;;;;;;;6.87;4.23;;;29.90;95.00;;;;;;4990167;28;20488;-77
2022/06/03 10:04:04;;;;;;;6.20;3.77;;;30.00;94.90;;;;;;4990317;28;20455;-77
2022/06/03 10:18:03;;;;;;;3.40;3.13;;;30.80;93.50;;;;;;4998261;28;20433;-77
2022/06/03 10:20:30;;;;;;;7.17;3.97;;;31.10;91.90;;;;;;4988788;28;20428;-77
2022/06/03 10:22:59;;;;;;;7.53;3.67;;;31.20;91.60;;;;;;4989902;28;20432;-77
2022/06/03 10:25:28;;;;;;;3.13;2.87;;;31.30;90.20;;;;;;4989505;28;21349;-77
2022/06/03 10:27:53;;;;;;;4.17;3.77;;;31.30;91.50;;;;;;4989451;28;20910;-76
2022/06/03 10:30:28;;;;;;;5.00;3.50;;;31.40;90.70;;;;;;4987994;28;20459;-76
2022/06/03 10:32:54;;;;;;;4.17;3.70;;;31.30;90.80;;;;;;4989367;28;20271;-76
2022/06/03 10:35:26;;;;;;;3.83;3.50;;;31.30;90.90;;;;;;4989735;28;20428;-75
2022/06/03 10:37:57;;;;;;;4.20;3.33;;;31.00;90.90;;;;;;4989675;28;20641;-75
2022/06/03 10:40:26;;;;;;;3.37;3.00;;;30.70;91.60;;;;;;5004732;28;20433;-75
2022/06/03 10:42:59;;;;;;;6.17;3.87;;;30.30;91.80;;;;;;4991977;28;20440;-76
2022/06/03 10:45:30;;;;;;;3.63;3.30;;;30.50;92.80;;;;;;5003673;28;20917;-76
2022/06/03 10:47:56;;;;;;;3.43;3.10;;;30.80;92.10;;;;;;4990808;28;20406;-73
2022/06/03 10:50:34;;;;;;;5.40;3.40;;;31.10;90.00;;;;;;4990933;28;20425;-73
2022/06/03 11:01:43;;;;;;;3.97;3.30;;;30.20;91.60;;;;;;4989854;28;20452;-76
2022/06/03 11:04:33;;;;;;;3.40;3.10;;;30.10;92.00;;;;;;4989805;28;20833;-76
2022/06/03 11:07:02;;;;;;;5.60;3.50;;;29.90;92.10;;;;;;4989213;28;20433;-76
2022/06/03 11:09:29;;;;;;;4.40;3.17;;;29.80;93.30;;;;;;4990557;28;20770;-76
2022/06/03 11:12:00;;;;;;;3.13;2.93;;;29.70;93.00;;;;;;5005974;28;20482;-74
2022/06/03 11:14:27;;;;;;;4.00;3.33;;;29.60;93.00;;;;;;5006088;28;20492;-76
2022/06/03 11:17:16;;;;;;;3.83;3.53;;;29.30;93.00;;;;;;4989072;28;20433;-76
2022/06/03 11:20:14;;;;;;;4.70;3.07;;;29.10;94.20;;;;;;4990612;28;20505;-75
2022/06/03 11:22:40;;;;;;;6.07;3.67;;;28.90;94.70;;;;;;5005265;28;20886;-76
2022/06/03 11:25:25;;;;;;;3.30;3.00;;;28.70;95.70;;;;;;4990442;28;20472;-76
2022/06/03 11:28:15;;;;;;;3.57;3.27;;;28.70;94.70;;;;;;4989051;28;20429;-74
2022/06/03 11:30:48;;;;;;;4.73;3.20;;;28.60;95.50;;;;;;4977779;28;20999;-74
2022/06/03 11:33:28;;;;;;;3.70;3.40;;;28.30;96.10;;;;;;4988685;28;20468;-76
2022/06/03 11:36:02;;;;;;;3.63;3.13;;;28.20;96.60;;;;;;4989800;28;20499;-76
2022/06/03 11:38:32;;;;;;;7.27;3.67;;;27.90;97.10;;;;;;5004609;28;20816;-75
2022/06/03 11:41:14;;;;;;;4.27;3.33;;;27.70;98.00;;;;;;4989563;28;20823;-76
2022/06/03 11:43:46;;;;;;;3.63;3.33;;;27.60;97.90;;;;;;5004599;28;20425;-76
2022/06/03 11:46:22;;;;;;;3.57;3.33;;;27.60;97.50;;;;;;4989622;28;20490;-76
2022/06/03 11:48:52;;;;;;;5.47;4.13;;;27.60;98.90;;;;;;4989703;28;20420;-76
2022/06/03 11:51:18;;;;;;;4.30;3.80;;;27.70;99.90;;;;;;4989513;28;20524;-75
2022/06/03 11:53:47;;;;;;;4.80;4.17;;;27.80;99.90;;;;;;4989694;28;20567;-76
2022/06/03 11:56:20;;;;;;;3.50;3.30;;;27.80;99.90;;;;;;4989231;28;20182;-76
2022/06/03 11:58:57;;;;;;;4.10;3.67;;;27.90;99.90;;;;;;4989702;28;20993;-76
2022/06/03 12:01:43;;;;;;;4.43;3.40;;;28.30;99.90;;;;;;4989363;28;20443;-75
2022/06/03 12:04:33;;;;;;;5.43;3.43;;;28.40;99.80;;;;;;4989456;28;20417;-76
2022/06/03 12:07:24;;;;;;;4.10;3.67;;;28.30;99.00;;;;;;4989660;28;20456;-75
2022/06/03 12:10:22;;;;;;;4.47;3.30;;;28.10;98.20;;;;;;4989494;28;20547;-75
2022/06/03 12:13:17;;;;;;;7.03;3.53;;;27.90;99.90;;;;;;4976279;28;20559;-73
2022/06/03 12:15:50;;;;;;;6.37;3.53;;;27.60;99.90;;;;;;4981512;28;20968;-73
2022/06/03 12:18:36;;;;;;;4.30;3.70;;;27.30;99.90;;;;;;4989526;28;20944;-73
2022/06/03 12:21:14;;;;;;;3.70;3.40;;;27.10;99.90;;;;;;4988013;28;20428;-73
2022/06/03 12:23:43;;;;;;;3.90;3.60;;;26.90;99.90;;;;;;4989642;28;20826;-73
2022/06/03 12:26:20;;;;;;;5.37;3.93;;;26.90;99.90;;;;;;4989169;28;20472;-73
2022/06/03 12:28:49;;;;;;;5.40;3.77;;;26.90;99.90;;;;;;4989286;28;20457;-73
2022/06/03 12:31:19;;;;;;;6.57;4.30;;;26.80;99.90;;;;;;4989360;28;20432;-73
2022/06/03 12:33:54;;;;;;;6.60;4.30;;;26.90;99.90;;;;;;4989399;28;20420;-73
2022/06/03 12:36:45;;;;;;;4.80;3.60;;;27.00;99.90;;;;;;4989527;28;21189;-73
2022/06/03 12:39:31;;;;;;;4.77;4.20;;;27.00;99.90;;;;;;4989384;28;20952;-73
2022/06/03 12:41:58;;;;;;;5.93;3.63;;;26.90;99.90;;;;;;4989304;28;20451;-73
2022/06/03 12:44:48;;;;;;;7.10;4.27;;;26.80;99.90;;;;;;5004418;28;20483;-73
2022/06/03 12:47:28;;;;;;;4.20;3.70;;;26.70;99.90;;;;;;4989518;28;20431;-73
2022/06/03 12:50:07;;;;;;;5.30;3.70;;;26.60;99.90;;;;;;4989983;28;20426;-73
2022/06/03 12:52:35;;;;;;;5.13;4.17;;;26.50;99.90;;;;;;4989897;28;21016;-73
2022/06/03 12:55:29;;;;;;;4.80;4.40;;;26.40;99.90;;;;;;4989908;28;20413;-73
2022/06/03 12:58:01;;;;;;;4.73;3.57;;;26.30;99.90;;;;;;4987970;28;20428;-73
2022/06/03 13:00:36;;;;;;;5.13;4.00;;;26.20;99.90;;;;;;4990002;28;20417;-73
2022/06/03 13:03:06;;;;;;;7.70;3.30;;;26.00;99.90;;;;;;4988856;28;20523;-73
2022/06/03 13:05:45;;;;;;;6.60;3.47;;;26.00;99.90;;;;;;5004807;28;20837;-75
2022/06/03 13:08:32;;;;;;;14.43;4.10;;;25.90;99.90;;;;;;4991443;28;20417;-75
2022/06/03 13:11:08;;;;;;;7.60;4.00;;;25.80;99.90;;;;;;4993877;28;20930;-75
2022/06/03 13:13:47;;;;;;;4.80;3.80;;;25.80;99.90;;;;;;5030921;28;20448;-74
2022/06/03 13:16:23;;;;;;;7.27;3.73;;;25.80;99.90;;;;;;5018221;28;20413;-74
2022/06/03 13:18:52;;;;;;;9.13;3.90;;;26.00;99.90;;;;;;5018928;28;20413;-74
2022/06/03 13:21:24;;;;;;;5.43;4.93;;;26.00;99.90;;;;;;5018814;28;20471;-73
2022/06/03 13:23:49;;;;;;;4.47;4.07;;;26.00;99.90;;;;;;4994861;28;20440;-75
2022/06/03 13:26:24;;;;;;;4.57;4.27;;;25.70;99.90;;;;;;4993174;28;20464;-75
2022/06/03 13:29:08;;;;;;;5.07;4.63;;;25.60;99.90;;;;;;4993244;28;20246;-75
2022/06/03 13:31:40;;;;;;;9.30;7.10;;;25.50;99.90;;;;;;4992826;28;20877;-75
2022/06/03 13:34:10;;;;;;;9.93;7.00;;;25.40;99.90;;;;;;4992684;28;20428;-75
2022/06/03 13:37:15;;;;;;;5.67;5.17;;;25.20;99.90;;;;;;4992387;28;20836;-75
2022/06/03 13:39:41;;;;;;;8.23;5.27;;;25.10;99.90;;;;;;4992007;28;20433;-75
2022/06/03 13:44:53;;;;;;;9.80;5.13;;;24.80;99.90;;;;;;4992155;28;20681;-76
2022/06/03 13:47:18;;;;;;;7.63;5.60;;;24.60;99.90;;;;;;4991733;28;20418;-76
2022/06/03 13:50:01;;;;;;;11.97;5.50;;;24.30;99.90;;;;;;4991820;28;20845;-76
2022/06/03 13:52:30;;;;;;;15.63;6.20;;;24.30;99.90;;;;;;4991851;28;20678;-76
2022/06/03 13:55:05;;;;;;;6.60;6.00;;;24.10;99.90;;;;;;4991925;28;20487;-75
2022/06/03 13:57:35;;;;;;;6.90;4.73;;;24.10;99.90;;;;;;4991978;28;20434;-75
2022/06/03 14:00:16;;;;;;;9.80;6.53;;;24.00;99.90;;;;;;4990547;28;20981;-75
2022/06/03 14:02:43;;;;;;;9.20;8.30;;;24.00;99.90;;;;;;4991722;28;20446;-75
2022/06/03 14:05:15;;;;;;;8.63;6.60;;;23.90;99.90;;;;;;4990137;28;20467;-75
2022/06/03 14:07:52;;;;;;;5.93;5.43;;;23.70;99.90;;;;;;4990149;28;20423;-75
2022/06/03 14:10:21;;;;;;;7.33;6.27;;;23.80;99.90;;;;;;5006424;28;20574;-76
2022/06/03 14:13:02;;;;;;;7.80;6.40;;;23.60;99.90;;;;;;4991176;28;20533;-75
2022/06/03 14:15:33;;;;;;;7.53;6.83;;;23.30;99.90;;;;;;4989906;28;21244;-76
2022/06/03 14:18:00;;;;;;;6.50;5.80;;;23.20;99.90;;;;;;4991231;28;20460;-76
2022/06/03 14:20:29;;;;;;;7.87;7.07;;;23.20;99.90;;;;;;4990962;28;20800;-76
2022/06/03 14:23:18;;;;;;;8.37;7.50;;;23.00;99.90;;;;;;4991067;28;20444;-75
2022/06/03 14:25:51;;;;;;;7.30;6.60;;;22.90;99.90;;;;;;4991035;28;20464;-75
2022/06/03 14:28:34;;;;;;;7.43;5.17;;;22.80;99.90;;;;;;4991097;28;20418;-75
2022/06/03 14:31:02;;;;;;;6.37;4.60;;;22.70;99.90;;;;;;4990882;28;20457;-76
2022/06/03 14:33:36;;;;;;;6.50;4.43;;;22.70;99.90;;;;;;4989309;28;20435;-76